createdAt,value
2017-07-25T00:03:18.036Z,1003.37
2017-07-25T00:08:14.425Z,1003.43
2017-07-25T00:13:11.884Z,1003.43
2017-07-25T00:18:08.366Z,1003.28
2017-07-25T00:23:05.340Z,1003.33
2017-07-25T00:28:01.068Z,1003.25
2017-07-25T00:32:56.951Z,1003.28
2017-07-25T00:37:52.866Z,1003.15
2017-07-25T00:42:48.775Z,1003.15
2017-07-25T00:47:45.718Z,1003.06
2017-07-25T00:52:42.292Z,1003.04
2017-07-25T00:57:38.920Z,1003.00
2017-07-25T01:02:34.613Z,1003.03
2017-07-25T01:07:31.225Z,1002.88
2017-07-25T01:12:26.393Z,1002.99
2017-07-25T01:17:22.623Z,1002.87
2017-07-25T01:22:18.686Z,1002.86
2017-07-25T01:27:16.306Z,1002.83
2017-07-25T01:32:11.867Z,1002.86
2017-07-25T01:37:07.878Z,1002.79
2017-07-25T01:42:03.804Z,1002.83
2017-07-25T01:47:00.003Z,1002.79
2017-07-25T01:51:56.077Z,1002.75
2017-07-25T01:56:52.774Z,1002.63
2017-07-25T02:01:48.773Z,1002.70
2017-07-25T02:06:44.473Z,1002.60
2017-07-25T02:11:40.614Z,1002.56
2017-07-25T02:16:37.629Z,1002.48
2017-07-25T02:21:34.288Z,1002.53
2017-07-25T02:26:30.400Z,1002.46
2017-07-25T02:31:26.124Z,1002.46
2017-07-25T02:36:22.083Z,1002.44
2017-07-25T02:41:18.950Z,1002.44
2017-07-25T02:46:15.738Z,1002.49
2017-07-25T02:51:11.309Z,1002.48
2017-07-25T02:56:08.562Z,1002.34
2017-07-25T03:01:04.384Z,1002.40
2017-07-25T03:06:02.897Z,1002.43
2017-07-25T03:10:58.247Z,1002.48
2017-07-25T03:15:54.195Z,1002.53
2017-07-25T03:20:50.795Z,1002.50
2017-07-25T03:25:46.865Z,1002.39
2017-07-25T03:30:42.577Z,1002.40
2017-07-25T03:35:38.547Z,1002.36
2017-07-25T03:40:34.094Z,1002.32
2017-07-25T03:45:31.398Z,1002.34
2017-07-25T03:50:27.373Z,1002.30
2017-07-25T03:55:23.218Z,1002.24
2017-07-25T04:00:20.601Z,1002.22
2017-07-25T04:05:17.554Z,1002.23
2017-07-25T04:10:13.856Z,1002.21
2017-07-25T04:15:09.443Z,1002.24
2017-07-25T04:20:05.288Z,1002.25
2017-07-25T04:25:01.269Z,1002.15
2017-07-25T04:29:58.275Z,1001.95
2017-07-25T04:34:54.630Z,1001.98
2017-07-25T04:39:50.512Z,1001.97
2017-07-25T04:44:47.446Z,1001.97
2017-07-25T04:49:43.815Z,1002.00
2017-07-25T04:54:39.421Z,1001.80
2017-07-25T04:59:35.638Z,1001.86
2017-07-25T05:04:31.480Z,1001.89
2017-07-25T05:09:28.556Z,1002.04
2017-07-25T05:14:24.058Z,1002.00
2017-07-25T05:19:20.638Z,1002.03
2017-07-25T05:24:17.951Z,1002.05
2017-07-25T05:29:13.434Z,1002.03
2017-07-25T05:34:09.487Z,1002.03
2017-07-25T05:39:05.367Z,1001.82
2017-07-25T05:44:01.249Z,1001.88
2017-07-25T05:48:57.261Z,1001.96
2017-07-25T05:53:54.042Z,1001.96
2017-07-25T05:58:49.514Z,1001.97
2017-07-25T06:03:45.494Z,1001.94
2017-07-25T06:08:41.331Z,1001.84
2017-07-25T06:13:38.479Z,1001.91
2017-07-25T06:18:35.241Z,1001.96
2017-07-25T06:23:30.914Z,1001.82
2017-07-25T06:28:28.031Z,1001.95
2017-07-25T06:33:24.453Z,1002.00
2017-07-25T06:38:20.493Z,1001.93
2017-07-25T06:43:16.331Z,1001.94
2017-07-25T06:48:12.121Z,1001.94
2017-07-25T06:53:08.845Z,1002.04
2017-07-25T06:58:04.364Z,1002.11
2017-07-25T07:03:00.619Z,1002.11
2017-07-25T07:07:56.382Z,1002.23
2017-07-25T07:12:53.038Z,1002.17
2017-07-25T07:17:49.454Z,1002.23
2017-07-25T07:22:46.384Z,1002.14
2017-07-25T07:27:42.816Z,1002.06
2017-07-25T07:32:39.640Z,1002.05
2017-07-25T07:37:36.786Z,1002.01
2017-07-25T07:42:33.653Z,1002.08
2017-07-25T07:47:30.581Z,1002.13
2017-07-25T07:52:26.044Z,1002.07
2017-07-25T07:57:22.415Z,1002.07
2017-07-25T08:02:18.686Z,1002.04
2017-07-25T08:07:14.878Z,1002.03
2017-07-25T08:12:12.997Z,1002.02
2017-07-25T08:17:08.328Z,1002.08
2017-07-25T08:22:04.908Z,1002.13
2017-07-25T08:27:03.164Z,1002.01
2017-07-25T08:31:59.065Z,1001.92
2017-07-25T08:36:54.750Z,1001.93
2017-07-25T08:41:50.870Z,1001.86
2017-07-25T08:46:46.957Z,1001.86
2017-07-25T08:51:42.816Z,1001.75
2017-07-25T08:56:38.387Z,1001.77
2017-07-25T09:01:35.270Z,1001.80
2017-07-25T09:06:32.297Z,1001.81
2017-07-25T09:11:28.481Z,1001.79
2017-07-25T09:16:24.423Z,1001.65
2017-07-25T09:21:21.476Z,1001.61
2017-07-25T09:26:18.158Z,1001.54
2017-07-25T09:31:13.692Z,1001.54
2017-07-25T09:36:09.666Z,1001.50
2017-07-25T09:41:06.121Z,1001.42
2017-07-25T09:46:03.149Z,1001.35
2017-07-25T09:50:58.686Z,1001.37
2017-07-25T09:55:54.453Z,1001.24
2017-07-25T10:00:50.551Z,1001.25
2017-07-25T10:05:46.318Z,1001.31
2017-07-25T10:10:42.475Z,1001.27
2017-07-25T10:15:38.861Z,1001.17
2017-07-25T10:20:36.567Z,1001.02
2017-07-25T10:25:31.685Z,1000.94
2017-07-25T10:30:28.240Z,1000.97
2017-07-25T10:35:24.432Z,1001.04
2017-07-25T10:40:20.350Z,1000.86
2017-07-25T10:45:16.923Z,1000.86
2017-07-25T10:50:14.107Z,1000.76
2017-07-25T10:55:09.697Z,1000.78
2017-07-25T11:00:05.404Z,1000.80
2017-07-25T11:05:01.198Z,1000.72
2017-07-25T11:09:58.014Z,1000.64
2017-07-25T11:14:53.699Z,1000.71
2017-07-25T11:19:49.724Z,1000.73
2017-07-25T11:24:45.971Z,1000.61
2017-07-25T11:29:44.585Z,1000.61
2017-07-25T11:34:40.560Z,1000.57
2017-07-25T11:39:38.129Z,1000.47
2017-07-25T11:44:33.694Z,1000.42
2017-07-25T11:49:30.514Z,1000.45
2017-07-25T11:54:26.261Z,1000.40
2017-07-25T11:59:23.267Z,1000.43
2017-07-25T12:04:19.101Z,1000.40
2017-07-25T12:09:16.352Z,1000.37
2017-07-25T12:14:11.679Z,1000.38
2017-07-25T12:19:07.354Z,1000.38
2017-07-25T12:24:03.171Z,1000.33
2017-07-25T12:28:59.384Z,1000.26
2017-07-25T12:33:55.276Z,1000.25
2017-07-25T12:38:51.798Z,1000.28
2017-07-25T12:43:48.689Z,1000.18
2017-07-25T12:48:45.178Z,1000.19
2017-07-25T12:53:41.015Z,1000.08
2017-07-25T12:58:37.096Z,1000.05
2017-07-25T13:03:34.163Z,999.87
2017-07-25T13:08:30.794Z,999.92
2017-07-25T13:13:27.769Z,999.84
2017-07-25T13:18:23.327Z,999.82
2017-07-25T13:23:19.102Z,999.75
2017-07-25T13:28:15.860Z,999.71
2017-07-25T13:33:11.159Z,999.75
2017-07-25T13:38:06.912Z,999.63
2017-07-25T13:43:05.043Z,999.68
2017-07-25T13:48:00.710Z,999.64
2017-07-25T13:52:56.803Z,999.64
2017-07-25T13:57:54.041Z,999.68
2017-07-25T14:02:49.514Z,999.68
2017-07-25T14:07:45.541Z,999.72
2017-07-25T14:12:41.365Z,999.66
2017-07-25T14:17:37.088Z,999.51
2017-07-25T14:22:33.998Z,999.49
2017-07-25T14:27:29.585Z,999.45
2017-07-25T14:32:25.577Z,999.35
2017-07-25T14:37:22.342Z,999.28
2017-07-25T14:42:19.729Z,999.23
2017-07-25T14:47:15.282Z,999.30
2017-07-25T14:52:10.959Z,999.31
2017-07-25T14:57:07.708Z,999.25
2017-07-25T15:02:02.768Z,999.32
2017-07-25T15:06:59.761Z,999.28
2017-07-25T15:11:56.399Z,999.28
2017-07-25T15:16:51.986Z,999.25
2017-07-25T15:21:48.555Z,999.36
2017-07-25T15:26:44.562Z,999.33
2017-07-25T15:31:40.903Z,999.29
2017-07-25T15:36:37.138Z,999.24
2017-07-25T15:41:32.710Z,999.38
2017-07-25T15:46:28.537Z,999.45
2017-07-25T15:51:24.423Z,999.53
2017-07-25T15:56:20.281Z,999.50
2017-07-25T16:01:16.154Z,999.45
2017-07-25T16:06:11.933Z,999.48
2017-07-25T16:11:08.492Z,999.52
2017-07-25T16:16:04.773Z,999.57
2017-07-25T16:21:00.315Z,999.66
2017-07-25T16:25:56.220Z,999.61
2017-07-25T16:30:53.212Z,999.53
2017-07-25T16:35:49.238Z,999.61
2017-07-25T16:40:45.552Z,999.59
2017-07-25T16:45:41.359Z,999.53
2017-07-25T16:50:36.901Z,999.60
2017-07-25T16:55:32.632Z,999.49
2017-07-25T17:00:28.447Z,999.59
2017-07-25T17:05:25.180Z,999.51
2017-07-25T17:10:22.199Z,999.54
2017-07-25T17:15:17.466Z,999.56
2017-07-25T17:20:13.701Z,999.54
2017-07-25T17:25:10.567Z,999.52
2017-07-25T17:30:07.227Z,999.67
2017-07-25T17:35:03.644Z,999.67
2017-07-25T17:39:59.556Z,999.68
2017-07-25T17:44:56.209Z,999.79
2017-07-25T17:49:52.289Z,999.74
2017-07-25T17:54:49.123Z,999.76
2017-07-25T17:59:44.531Z,999.83
2017-07-25T18:04:40.385Z,999.86
2017-07-25T18:09:36.188Z,999.88
2017-07-25T18:14:31.923Z,999.84
2017-07-25T18:19:29.168Z,999.98
2017-07-25T18:24:24.640Z,999.94
2017-07-25T18:29:21.408Z,999.98
2017-07-25T18:34:18.080Z,1000.08
2017-07-25T18:39:13.886Z,1000.19
2017-07-25T18:44:09.510Z,1000.33
2017-07-25T18:49:06.553Z,1000.26
2017-07-25T18:54:03.115Z,1000.32
2017-07-25T18:58:59.585Z,1000.44
2017-07-25T19:03:55.285Z,1000.45
2017-07-25T19:08:52.269Z,1000.51
2017-07-25T19:13:47.999Z,1000.45
2017-07-25T19:18:45.711Z,1000.66
2017-07-25T19:23:41.133Z,1000.71
2017-07-25T19:28:37.005Z,1000.74
2017-07-25T19:33:32.787Z,1000.79
2017-07-25T19:38:29.469Z,1000.82
2017-07-25T19:43:26.874Z,1000.82
2017-07-25T19:48:22.751Z,1000.95
2017-07-25T19:53:19.639Z,1000.84
2017-07-25T19:58:15.387Z,1000.90
2017-07-25T20:03:11.162Z,1000.95
2017-07-25T20:08:07.107Z,1001.04
2017-07-25T20:13:03.026Z,1001.11
2017-07-25T20:17:58.696Z,1001.08
2017-07-25T20:22:54.380Z,1001.07
2017-07-25T20:27:51.686Z,1001.17
2017-07-25T20:32:47.319Z,1001.11
2017-07-25T20:37:44.143Z,1001.26
2017-07-25T20:42:43.052Z,1001.20
2017-07-25T20:47:38.521Z,1001.31
2017-07-25T20:52:36.605Z,1001.24
2017-07-25T20:57:32.851Z,1001.27
2017-07-25T21:02:30.108Z,1001.29
2017-07-25T21:07:25.769Z,1001.31
2017-07-25T21:12:23.948Z,1001.32
2017-07-25T21:17:20.627Z,1001.33
2017-07-25T21:22:16.257Z,1001.38
2017-07-25T21:27:12.383Z,1001.40
2017-07-25T21:32:08.628Z,1001.45
2017-07-25T21:37:04.529Z,1001.45
2017-07-25T21:42:00.287Z,1001.44
2017-07-25T21:46:57.221Z,1001.39
2017-07-25T21:51:54.974Z,1001.32
2017-07-25T21:56:51.475Z,1001.41
2017-07-25T22:01:49.100Z,1001.57
2017-07-25T22:06:44.547Z,1001.59
2017-07-25T22:11:41.376Z,1001.49
2017-07-25T22:16:37.001Z,1001.40
2017-07-25T22:21:32.826Z,1001.41
2017-07-25T22:26:28.584Z,1001.36
2017-07-25T22:31:24.434Z,1001.40
2017-07-25T22:36:20.335Z,1001.43
2017-07-25T22:41:16.410Z,1001.47
2017-07-25T22:46:13.929Z,1001.51
2017-07-25T22:51:10.922Z,1001.39
2017-07-25T22:56:07.122Z,1001.46
2017-07-25T23:01:03.072Z,1001.37
2017-07-25T23:05:58.871Z,1001.37
2017-07-25T23:10:55.721Z,1001.32
2017-07-25T23:15:51.380Z,1001.30
2017-07-25T23:20:47.482Z,1001.32
2017-07-25T23:25:45.589Z,1001.37
2017-07-25T23:30:41.900Z,1001.40
2017-07-25T23:35:38.787Z,1001.37
2017-07-25T23:40:35.510Z,1001.31
2017-07-25T23:45:33.098Z,1001.48
2017-07-25T23:50:29.828Z,1001.42
2017-07-25T23:55:25.606Z,1001.40
